Погода Паулистана неделю

Параиба, Бразилия

20 - 26 июля
  • 20июля
    Сегодня
    +20°
    +33°
    Небольшая облачность
    ВремяПогодаТемператураВлажностьДавлениеВетер, м/сВероятность осадков
    00:00Ясно и безоблачно+25°C61 %749 мм4.8 м/с5 %
    03:00Ясно и безоблачно+22°C70 %748 мм2.8 м/с5 %
    06:00Ясно и безоблачно+21°C78 %748 мм2.2 м/с5 %
    09:00Практически безоблачно+26°C52 %749 мм6.3 м/с5 %
    12:00Облачно с прояснениями+31°C35 %747 мм5.7 м/с5 %
    15:00Небольшая облачность+32°C33 %746 мм4.8 м/с1 %
    18:00Облачно с прояснениями+30°C40 %746 мм4.0 м/с5 %
    21:00Практически безоблачно+26°C50 %748 мм6.1 м/с17 %
  • 21июля
    Воскресенье
    +20°
    +34°
    Облачно с прояснениями
    ВремяПогодаТемператураВлажностьДавлениеВетер, м/сВероятность осадков
    00:00Практически безоблачно+25°C58 %748 мм3.9 м/с14 %
    03:00Ясно и безоблачно+22°C66 %747 мм2.4 м/с6 %
    06:00Ясно и безоблачно+20°C77 %748 мм1.6 м/с2 %
    09:00Ясно и безоблачно+26°C50 %749 мм3.9 м/с5 %
    12:00Ясно и безоблачно+32°C33 %747 мм4.6 м/с5 %
    15:00Облачно с прояснениями+33°C30 %745 мм5.0 м/с5 %
    18:00Практически безоблачно+31°C35 %746 мм2.8 м/с5 %
    21:00Ясно и безоблачно+26°C50 %748 мм5.2 м/с3 %
  • 22июля
    Понедельник
    +20°
    +34°
    Практически безоблачно
    ВремяПогодаТемператураВлажностьДавлениеВетер, м/сВероятность осадков
    00:00Ясно и безоблачно+25°C58 %748 мм3.7 м/с4 %
    03:00Ясно и безоблачно+22°C66 %747 мм2.0 м/с5 %
    06:00Ясно и безоблачно+21°C70 %748 мм2.0 м/с5 %
    09:00Ясно и безоблачно+26°C44 %749 мм4.5 м/с5 %
    12:00Практически безоблачно+32°C36 %747 мм6.2 м/с5 %
    15:00Практически безоблачно+33°C30 %746 мм5.8 м/с5 %
    18:00Ясно и безоблачно+31°C37 %747 мм5.0 м/с5 %
    21:00Ясно и безоблачно+27°C54 %748 мм6.7 м/с16 %
  • 23июля
    Вторник
    +20°
    +35°
    Небольшая облачность
    ВремяПогодаТемператураВлажностьДавлениеВетер, м/сВероятность осадков
    00:00Ясно и безоблачно+25°C69 %749 мм4.7 м/с4 %
    03:00Ясно и безоблачно+22°C77 %748 мм2.9 м/с5 %
    06:00Ясно и безоблачно+21°C79 %749 мм2.9 м/с5 %
    09:00Ясно и безоблачно+26°C55 %750 мм4.2 м/с5 %
    12:00Ясно и безоблачно+31°C37 %748 мм5.3 м/с5 %
    15:00Небольшая облачность+35°C28 %746 мм5.5 м/с5 %
    18:00Ясно и безоблачно+31°C38 %747 мм6.2 м/с5 %
    21:00Ясно и безоблачно+26°C54 %749 мм5.9 м/с11 %
Мы используем cookies
Соглашаюсь